createdAt,value
2017-12-30T00:01:22.145Z,65.72
2017-12-30T00:03:49.581Z,66.52
2017-12-30T00:06:17.010Z,67.22
2017-12-30T00:08:44.428Z,67.84
2017-12-30T00:11:11.882Z,68.70
2017-12-30T00:13:39.306Z,69.09
2017-12-30T00:16:06.731Z,69.61
2017-12-30T00:18:34.184Z,69.99
2017-12-30T00:21:01.617Z,70.10
2017-12-30T00:23:29.043Z,70.61
2017-12-30T00:25:56.498Z,70.91
2017-12-30T00:28:23.925Z,71.27
2017-12-30T00:30:51.374Z,71.44
2017-12-30T00:33:18.790Z,71.69
2017-12-30T00:35:47.028Z,71.77
2017-12-30T00:38:14.455Z,71.88
2017-12-30T00:40:41.875Z,71.88
2017-12-30T00:43:09.557Z,72.03
2017-12-30T00:45:37.595Z,72.06
2017-12-30T00:48:05.736Z,72.18
2017-12-30T00:50:33.201Z,72.25
2017-12-30T00:53:01.153Z,72.46
2017-12-30T00:55:28.591Z,72.71
2017-12-30T00:57:56.044Z,72.88
2017-12-30T01:00:23.471Z,72.98
2017-12-30T01:02:50.967Z,72.97
2017-12-30T01:05:18.377Z,73.22
2017-12-30T01:07:45.813Z,73.46
2017-12-30T01:10:13.252Z,73.44
2017-12-30T01:12:40.665Z,73.56
2017-12-30T01:15:08.827Z,73.60
2017-12-30T01:17:36.284Z,73.97
2017-12-30T01:20:03.749Z,74.27
2017-12-30T01:22:31.228Z,74.27
2017-12-30T01:24:58.639Z,74.39
2017-12-30T01:27:26.074Z,74.18
2017-12-30T01:29:53.498Z,74.05
2017-12-30T01:32:21.179Z,74.13
2017-12-30T01:34:48.622Z,74.23
2017-12-30T01:37:16.079Z,74.32
2017-12-30T01:39:43.490Z,74.35
2017-12-30T01:42:10.959Z,74.38
2017-12-30T01:44:38.406Z,74.37
2017-12-30T01:47:05.867Z,74.39
2017-12-30T01:49:33.293Z,74.43
2017-12-30T01:52:00.736Z,74.42
2017-12-30T01:54:28.177Z,74.33
2017-12-30T01:56:55.624Z,74.45
2017-12-30T01:59:23.048Z,74.42
2017-12-30T02:01:50.560Z,74.42
2017-12-30T02:04:18.047Z,74.48
2017-12-30T02:06:45.510Z,74.54
2017-12-30T02:09:12.967Z,74.51
2017-12-30T02:11:40.428Z,74.52
2017-12-30T02:14:07.862Z,74.49
2017-12-30T02:16:35.315Z,74.53
2017-12-30T02:19:03.329Z,74.63
2017-12-30T02:21:30.759Z,74.62
2017-12-30T02:23:58.183Z,74.45
2017-12-30T02:26:25.633Z,74.48
2017-12-30T02:28:53.067Z,74.96
2017-12-30T02:31:20.552Z,75.35
2017-12-30T02:33:47.969Z,75.61
2017-12-30T02:36:15.418Z,76.08
2017-12-30T02:38:42.854Z,76.75
2017-12-30T02:41:10.272Z,76.92
2017-12-30T02:43:37.696Z,77.08
2017-12-30T02:46:05.134Z,77.34
2017-12-30T02:48:32.577Z,77.53
2017-12-30T02:51:00.026Z,77.75
2017-12-30T02:53:27.519Z,77.69
2017-12-30T02:55:54.958Z,77.83
2017-12-30T02:58:22.376Z,77.62
2017-12-30T03:00:50.356Z,77.37
2017-12-30T03:03:17.800Z,77.26
2017-12-30T03:05:45.272Z,77.06
2017-12-30T03:08:12.718Z,77.01
2017-12-30T03:10:40.167Z,77.40
2017-12-30T03:13:07.613Z,77.57
2017-12-30T03:15:35.077Z,78.05
2017-12-30T03:18:03.523Z,78.63
2017-12-30T03:20:30.983Z,78.92
2017-12-30T03:22:58.430Z,79.41
2017-12-30T03:25:25.835Z,79.74
2017-12-30T03:27:53.279Z,79.98
2017-12-30T03:30:20.710Z,80.12
2017-12-30T03:32:48.212Z,80.17
2017-12-30T03:35:15.644Z,80.06
2017-12-30T03:37:43.068Z,80.08
2017-12-30T03:40:10.493Z,80.01
2017-12-30T03:42:37.910Z,79.93
2017-12-30T03:45:05.360Z,79.97
2017-12-30T03:47:33.633Z,79.69
2017-12-30T03:50:01.088Z,79.50
2017-12-30T03:52:28.522Z,79.29
2017-12-30T03:54:55.939Z,79.26
2017-12-30T03:57:23.375Z,79.07
2017-12-30T03:59:50.795Z,78.93
2017-12-30T04:02:18.300Z,78.70
2017-12-30T04:04:45.711Z,78.57
2017-12-30T04:07:14.040Z,78.37
2017-12-30T04:09:41.447Z,78.39
2017-12-30T04:12:08.874Z,77.99
2017-12-30T04:14:36.309Z,77.86
2017-12-30T04:17:03.771Z,77.51
2017-12-30T04:19:31.201Z,77.31
2017-12-30T04:21:58.670Z,77.03
2017-12-30T04:24:26.104Z,76.75
2017-12-30T04:26:53.539Z,76.78
2017-12-30T04:29:20.959Z,76.74
2017-12-30T04:31:49.176Z,76.55
2017-12-30T04:34:16.627Z,76.46
2017-12-30T04:36:44.152Z,76.41
2017-12-30T04:39:11.583Z,76.26
2017-12-30T04:41:39.052Z,76.05
2017-12-30T04:44:06.459Z,75.78
2017-12-30T04:46:33.891Z,75.55
2017-12-30T04:49:01.318Z,75.69
2017-12-30T04:51:28.756Z,75.77
2017-12-30T04:53:56.196Z,75.61
2017-12-30T04:56:23.602Z,75.58
2017-12-30T04:58:51.084Z,75.52
2017-12-30T05:01:18.509Z,75.53
2017-12-30T05:03:45.995Z,75.60
2017-12-30T05:06:13.499Z,75.54
2017-12-30T05:08:40.940Z,75.51
2017-12-30T05:11:08.368Z,75.47
2017-12-30T05:13:35.876Z,75.49
2017-12-30T05:16:03.311Z,75.61
2017-12-30T05:18:30.742Z,75.56
2017-12-30T05:20:58.177Z,75.52
2017-12-30T05:23:25.604Z,75.56
2017-12-30T05:25:53.058Z,75.59
2017-12-30T05:28:21.242Z,75.46
2017-12-30T05:30:48.659Z,75.58
2017-12-30T05:33:16.126Z,75.62
2017-12-30T05:35:43.555Z,75.56
2017-12-30T05:38:10.978Z,75.41
2017-12-30T05:40:38.411Z,75.46
2017-12-30T05:43:05.842Z,75.50
2017-12-30T05:45:33.301Z,75.48
2017-12-30T05:48:01.038Z,75.40
2017-12-30T05:50:28.482Z,75.50
2017-12-30T05:52:56.595Z,75.66
2017-12-30T05:55:24.059Z,75.64
2017-12-30T05:57:51.463Z,75.53
2017-12-30T06:00:18.888Z,75.48
2017-12-30T06:02:46.308Z,75.44
2017-12-30T06:05:13.751Z,75.57
2017-12-30T06:07:41.213Z,75.62
2017-12-30T06:10:08.640Z,75.86
2017-12-30T06:12:36.324Z,75.90
2017-12-30T06:15:03.758Z,75.94
2017-12-30T06:17:32.021Z,75.80
2017-12-30T06:19:59.437Z,75.90
2017-12-30T06:22:26.860Z,76.03
2017-12-30T06:24:54.286Z,76.17
2017-12-30T06:27:21.841Z,76.24
2017-12-30T06:29:49.279Z,76.28
2017-12-30T06:32:16.799Z,76.41
2017-12-30T06:34:44.221Z,76.36
2017-12-30T06:37:11.650Z,76.37
2017-12-30T06:39:39.122Z,76.49
2017-12-30T06:42:07.087Z,76.45
2017-12-30T06:44:34.528Z,76.47
2017-12-30T06:47:01.966Z,76.42
2017-12-30T06:49:30.408Z,76.42
2017-12-30T06:51:59.057Z,76.48
2017-12-30T06:54:26.505Z,76.68
2017-12-30T06:56:54.699Z,76.66
2017-12-30T06:59:22.138Z,76.75
2017-12-30T07:01:49.560Z,76.84
2017-12-30T07:04:17.026Z,76.76
2017-12-30T07:06:44.980Z,76.91
2017-12-30T07:09:12.453Z,77.03
2017-12-30T07:11:39.909Z,77.18
2017-12-30T07:14:07.320Z,77.19
2017-12-30T07:16:34.766Z,77.24
2017-12-30T07:19:02.185Z,77.21
2017-12-30T07:21:29.623Z,77.37
2017-12-30T07:23:57.044Z,77.33
2017-12-30T07:26:24.500Z,77.36
2017-12-30T07:28:51.928Z,77.45
2017-12-30T07:31:19.392Z,77.59
2017-12-30T07:33:46.853Z,77.69
2017-12-30T07:36:14.253Z,77.83
2017-12-30T07:38:41.730Z,77.93
2017-12-30T07:41:10.584Z,77.85
2017-12-30T07:43:38.120Z,77.87
2017-12-30T07:46:05.593Z,77.84
2017-12-30T07:48:33.097Z,77.87
2017-12-30T07:51:00.524Z,77.81
2017-12-30T07:53:27.969Z,77.88
2017-12-30T07:55:55.499Z,77.94
2017-12-30T07:58:22.959Z,78.11
2017-12-30T08:00:50.417Z,78.10
2017-12-30T08:03:17.838Z,78.15
2017-12-30T08:05:45.277Z,78.07
2017-12-30T08:08:12.727Z,78.14
2017-12-30T08:10:40.171Z,78.11
2017-12-30T08:13:07.623Z,78.16
2017-12-30T08:15:35.083Z,78.29
2017-12-30T08:18:02.509Z,78.40
2017-12-30T08:20:29.961Z,78.41
2017-12-30T08:22:57.386Z,78.41
2017-12-30T08:25:24.826Z,78.59
2017-12-30T08:27:52.283Z,78.63
2017-12-30T08:30:19.707Z,78.68
2017-12-30T08:32:47.154Z,78.80
2017-12-30T08:35:14.581Z,78.83
2017-12-30T08:37:42.040Z,79.03
2017-12-30T08:40:09.465Z,79.04
2017-12-30T08:42:36.974Z,79.17
2017-12-30T08:45:04.425Z,79.10
2017-12-30T08:47:31.857Z,79.09
2017-12-30T08:49:59.341Z,79.07
2017-12-30T08:52:26.785Z,78.90
2017-12-30T08:54:54.267Z,78.91
2017-12-30T08:57:21.796Z,78.86
2017-12-30T08:59:49.283Z,78.70
2017-12-30T09:02:16.745Z,78.73
2017-12-30T09:04:44.176Z,78.63
2017-12-30T09:07:11.623Z,78.61
2017-12-30T09:09:39.092Z,78.57
2017-12-30T09:12:06.543Z,78.58
2017-12-30T09:14:33.993Z,78.48
2017-12-30T09:17:01.450Z,78.34
2017-12-30T09:19:29.027Z,78.03
2017-12-30T09:21:56.475Z,77.97
2017-12-30T09:24:23.982Z,77.81
2017-12-30T09:26:51.483Z,77.98
2017-12-30T09:29:19.049Z,77.93
2017-12-30T09:31:47.012Z,77.70
2017-12-30T09:34:14.480Z,77.60
2017-12-30T09:36:41.987Z,77.24
2017-12-30T09:39:09.403Z,77.17
2017-12-30T09:41:36.831Z,77.07
2017-12-30T09:44:04.281Z,77.10
2017-12-30T09:46:31.707Z,77.07
2017-12-30T09:48:59.121Z,76.93
2017-12-30T09:51:26.563Z,76.77
2017-12-30T09:53:54.032Z,76.53
2017-12-30T09:56:21.523Z,76.46
2017-12-30T09:58:48.983Z,76.36
2017-12-30T10:01:16.439Z,76.17
2017-12-30T10:03:43.970Z,75.98
2017-12-30T10:06:11.431Z,75.96
2017-12-30T10:08:38.981Z,75.73
2017-12-30T10:11:06.473Z,75.61
2017-12-30T10:13:33.968Z,75.50
2017-12-30T10:16:01.486Z,75.29
2017-12-30T10:18:29.012Z,75.06
2017-12-30T10:20:56.444Z,74.90
2017-12-30T10:23:23.895Z,74.63
2017-12-30T10:25:51.391Z,74.29
2017-12-30T10:28:18.935Z,74.11
2017-12-30T10:30:46.365Z,73.83
2017-12-30T10:33:13.820Z,73.88
2017-12-30T10:35:41.305Z,74.14
2017-12-30T10:38:08.764Z,74.04
2017-12-30T10:40:36.242Z,73.94
2017-12-30T10:43:03.760Z,73.67
2017-12-30T10:45:31.353Z,73.55
2017-12-30T10:47:58.827Z,73.71
2017-12-30T10:50:26.273Z,73.74
2017-12-30T10:52:53.777Z,73.96
2017-12-30T10:55:21.217Z,74.17
2017-12-30T10:57:48.721Z,74.14
2017-12-30T11:00:16.186Z,74.03
2017-12-30T11:02:43.645Z,74.43
2017-12-30T11:05:11.085Z,73.66
2017-12-30T11:07:38.547Z,73.65
2017-12-30T11:10:05.977Z,73.76
2017-12-30T11:12:33.421Z,73.90
2017-12-30T11:15:00.880Z,73.93
2017-12-30T11:17:28.324Z,73.82
2017-12-30T11:19:55.780Z,73.77
2017-12-30T11:22:23.212Z,73.82
2017-12-30T11:24:50.678Z,73.78
2017-12-30T11:27:18.192Z,73.95
2017-12-30T11:29:45.633Z,74.66
2017-12-30T11:32:13.067Z,74.91
2017-12-30T11:34:40.582Z,75.29
2017-12-30T11:37:08.097Z,75.72
2017-12-30T11:39:35.858Z,75.97
2017-12-30T11:42:03.286Z,76.22
2017-12-30T11:44:31.023Z,76.63
2017-12-30T11:46:58.455Z,76.93
2017-12-30T11:49:25.914Z,77.41
2017-12-30T11:51:53.351Z,78.09
2017-12-30T11:54:20.819Z,78.87
2017-12-30T11:56:48.300Z,79.49
2017-12-30T11:59:15.748Z,79.97
2017-12-30T12:01:43.183Z,80.84
2017-12-30T12:04:10.619Z,81.00
2017-12-30T12:06:38.063Z,81.30
2017-12-30T12:09:05.551Z,81.95
2017-12-30T12:11:32.987Z,82.37
2017-12-30T12:14:00.481Z,82.74
2017-12-30T12:16:27.950Z,82.41
2017-12-30T12:18:55.471Z,82.15
2017-12-30T12:21:22.953Z,82.32
2017-12-30T12:23:50.402Z,82.45
2017-12-30T12:26:17.878Z,82.58
2017-12-30T12:28:45.442Z,82.87
2017-12-30T12:31:12.883Z,82.78
2017-12-30T12:33:40.304Z,82.59
2017-12-30T12:36:07.789Z,82.82
2017-12-30T12:38:35.223Z,82.87
2017-12-30T12:41:02.671Z,83.55
2017-12-30T12:43:30.152Z,83.43
2017-12-30T12:45:57.632Z,83.72
2017-12-30T12:48:25.195Z,83.47
2017-12-30T12:50:52.644Z,83.52
2017-12-30T12:53:20.072Z,83.42
2017-12-30T12:55:47.527Z,83.34
2017-12-30T12:58:15.016Z,83.72
2017-12-30T13:00:42.473Z,83.66
2017-12-30T13:03:09.951Z,83.31
2017-12-30T13:05:37.424Z,83.67
2017-12-30T13:08:04.892Z,84.29
2017-12-30T13:10:32.337Z,84.15
2017-12-30T13:12:59.776Z,84.28
2017-12-30T13:15:27.224Z,84.54
2017-12-30T13:17:54.714Z,84.64
2017-12-30T13:20:22.197Z,84.26
2017-12-30T13:22:49.695Z,84.02
2017-12-30T13:25:17.132Z,84.23
2017-12-30T13:27:44.650Z,83.88
2017-12-30T13:30:12.179Z,83.69
2017-12-30T13:32:39.658Z,83.84
2017-12-30T13:35:07.102Z,83.09
2017-12-30T13:37:34.573Z,82.81
2017-12-30T13:40:02.035Z,82.89
2017-12-30T13:42:29.503Z,83.18
2017-12-30T13:44:56.948Z,82.85
2017-12-30T13:47:29.337Z,82.80
2017-12-30T13:49:56.792Z,83.10
2017-12-30T13:52:24.261Z,82.71
2017-12-30T13:54:51.731Z,83.03
2017-12-30T13:57:20.210Z,82.62
2017-12-30T13:59:47.678Z,82.59
2017-12-30T14:02:15.166Z,82.90
2017-12-30T14:04:42.588Z,82.74
2017-12-30T14:07:10.072Z,82.78
2017-12-30T14:09:37.536Z,83.05
2017-12-30T14:12:05.000Z,82.94
2017-12-30T14:14:32.419Z,82.85
2017-12-30T14:17:00.134Z,82.80
2017-12-30T14:19:27.586Z,82.88
2017-12-30T14:21:55.032Z,82.97
2017-12-30T14:24:22.465Z,83.01
2017-12-30T14:26:49.923Z,83.04
2017-12-30T14:29:17.369Z,83.10
2017-12-30T14:31:44.813Z,83.21
2017-12-30T14:34:12.262Z,83.26
2017-12-30T14:36:39.775Z,83.19
2017-12-30T14:39:07.493Z,83.46
2017-12-30T14:41:34.981Z,83.53
2017-12-30T14:44:02.418Z,83.71
2017-12-30T14:46:29.907Z,83.73
2017-12-30T14:48:57.385Z,83.64
2017-12-30T14:51:24.852Z,83.45
2017-12-30T14:53:52.294Z,83.44
2017-12-30T14:56:21.631Z,83.55
2017-12-30T14:58:49.093Z,83.06
2017-12-30T15:01:16.546Z,82.91
2017-12-30T15:03:44.009Z,83.10
2017-12-30T15:06:11.503Z,82.87
2017-12-30T15:08:38.949Z,82.81
2017-12-30T15:11:06.434Z,82.67
2017-12-30T15:13:33.904Z,82.32
2017-12-30T15:16:01.350Z,82.32
2017-12-30T15:18:28.806Z,82.21
2017-12-30T15:20:56.265Z,82.19
2017-12-30T15:23:23.699Z,82.08
2017-12-30T15:25:51.134Z,81.96
2017-12-30T15:28:18.601Z,81.88
2017-12-30T15:30:46.085Z,81.74
2017-12-30T15:33:13.552Z,81.50
2017-12-30T15:35:41.010Z,81.30
2017-12-30T15:38:08.518Z,81.27
2017-12-30T15:40:36.052Z,81.11
2017-12-30T15:43:03.503Z,81.00
2017-12-30T15:45:30.934Z,80.87
2017-12-30T15:47:58.397Z,80.73
2017-12-30T15:50:25.884Z,80.63
2017-12-30T15:52:53.346Z,80.36
2017-12-30T15:55:20.836Z,80.40
2017-12-30T15:57:48.277Z,80.26
2017-12-30T16:00:15.752Z,80.15
2017-12-30T16:02:43.177Z,79.75
2017-12-30T16:05:10.636Z,79.87
2017-12-30T16:07:38.084Z,80.03
2017-12-30T16:10:06.345Z,80.16
2017-12-30T16:12:33.783Z,79.93
2017-12-30T16:15:01.280Z,80.03
2017-12-30T16:17:28.812Z,80.08
2017-12-30T16:19:56.274Z,80.19
2017-12-30T16:22:23.718Z,80.29
2017-12-30T16:24:51.217Z,80.48
2017-12-30T16:27:18.677Z,80.41
2017-12-30T16:29:46.185Z,80.58
2017-12-30T16:32:13.711Z,80.65
2017-12-30T16:34:41.217Z,80.74
2017-12-30T16:37:08.763Z,80.91
2017-12-30T16:39:36.277Z,81.05
2017-12-30T16:42:03.768Z,81.24
2017-12-30T16:44:31.243Z,81.21
2017-12-30T16:47:03.739Z,81.46
2017-12-30T16:49:31.180Z,81.72
2017-12-30T16:51:58.660Z,81.48
2017-12-30T16:54:26.092Z,81.37
2017-12-30T16:56:53.579Z,81.55
2017-12-30T16:59:21.065Z,81.72
2017-12-30T17:01:49.139Z,81.75
2017-12-30T17:04:16.571Z,81.53
2017-12-30T17:06:44.015Z,81.43
2017-12-30T17:09:11.467Z,81.61
2017-12-30T17:11:38.944Z,81.85
2017-12-30T17:14:06.448Z,81.83
2017-12-30T17:16:33.973Z,81.84
2017-12-30T17:19:01.420Z,81.74
2017-12-30T17:21:28.902Z,81.82
2017-12-30T17:23:56.929Z,81.92
2017-12-30T17:26:24.385Z,82.10
2017-12-30T17:28:51.833Z,82.04
2017-12-30T17:31:19.285Z,82.31
2017-12-30T17:33:46.748Z,82.45
2017-12-30T17:36:14.219Z,82.40
2017-12-30T17:38:41.727Z,82.56
2017-12-30T17:41:09.241Z,82.72
2017-12-30T17:43:36.912Z,82.82
2017-12-30T17:46:04.421Z,82.92
2017-12-30T17:48:31.898Z,83.04
2017-12-30T17:50:59.391Z,83.07
2017-12-30T17:53:26.847Z,83.08
2017-12-30T17:55:54.293Z,83.30
2017-12-30T17:58:21.773Z,83.52
2017-12-30T18:00:49.245Z,83.47
2017-12-30T18:03:16.717Z,83.80
2017-12-30T18:05:44.177Z,83.96
2017-12-30T18:08:11.642Z,83.84
2017-12-30T18:10:39.120Z,84.30
2017-12-30T18:13:07.955Z,84.24
2017-12-30T18:15:35.537Z,84.36
2017-12-30T18:18:03.015Z,84.21
2017-12-30T18:20:30.492Z,84.45
2017-12-30T18:22:57.981Z,84.49
2017-12-30T18:25:25.481Z,84.55
2017-12-30T18:27:52.941Z,84.38
2017-12-30T18:30:20.401Z,84.51
2017-12-30T18:32:47.860Z,84.42
2017-12-30T18:35:15.490Z,84.18
2017-12-30T18:37:42.945Z,84.12
2017-12-30T18:40:10.412Z,84.36
2017-12-30T18:42:37.862Z,84.20
2017-12-30T18:45:05.349Z,84.03
2017-12-30T18:47:32.809Z,83.92
2017-12-30T18:50:00.267Z,83.83
2017-12-30T18:52:27.700Z,83.77
2017-12-30T18:54:55.197Z,83.69
2017-12-30T18:57:22.647Z,84.11
2017-12-30T18:59:50.142Z,83.25
2017-12-30T19:02:17.602Z,82.43
2017-12-30T19:04:45.165Z,82.03
2017-12-30T19:07:12.631Z,81.51
2017-12-30T19:09:40.102Z,80.95
2017-12-30T19:12:07.562Z,80.95
2017-12-30T19:14:35.038Z,81.50
2017-12-30T19:17:02.499Z,82.12
2017-12-30T19:19:29.944Z,82.54
2017-12-30T19:21:57.422Z,82.93
2017-12-30T19:24:24.862Z,83.15
2017-12-30T19:26:52.321Z,83.40
2017-12-30T19:29:19.776Z,83.57
2017-12-30T19:31:47.239Z,83.64
2017-12-30T19:34:14.679Z,83.68
2017-12-30T19:36:42.173Z,83.60
2017-12-30T19:39:09.692Z,83.45
2017-12-30T19:41:37.179Z,83.82
2017-12-30T19:44:04.700Z,83.81
2017-12-30T19:46:32.171Z,84.05
2017-12-30T19:48:59.635Z,84.13
2017-12-30T19:51:27.138Z,84.32
2017-12-30T19:53:54.686Z,84.03
2017-12-30T19:56:22.163Z,84.03
2017-12-30T19:58:49.601Z,84.14
2017-12-30T20:01:17.080Z,84.23
2017-12-30T20:03:44.567Z,83.87
2017-12-30T20:06:12.044Z,83.65
2017-12-30T20:08:39.493Z,83.23
2017-12-30T20:11:06.955Z,83.15
2017-12-30T20:13:34.392Z,82.95
2017-12-30T20:16:01.885Z,82.88
2017-12-30T20:18:29.325Z,82.75
2017-12-30T20:20:56.864Z,82.57
2017-12-30T20:23:25.223Z,82.51
2017-12-30T20:25:52.694Z,82.54
2017-12-30T20:28:20.254Z,82.54
2017-12-30T20:30:47.724Z,82.42
2017-12-30T20:33:15.210Z,82.65
2017-12-30T20:35:42.702Z,82.84
2017-12-30T20:38:10.184Z,82.60
2017-12-30T20:40:37.712Z,82.57
2017-12-30T20:43:05.168Z,82.68
2017-12-30T20:45:32.677Z,82.57
2017-12-30T20:48:00.763Z,82.34
2017-12-30T20:50:28.222Z,82.11
2017-12-30T20:52:55.686Z,81.83
2017-12-30T20:55:23.177Z,81.68
2017-12-30T20:57:50.672Z,81.57
2017-12-30T21:00:18.138Z,80.99
2017-12-30T21:02:45.614Z,80.86
2017-12-30T21:05:13.137Z,80.92
2017-12-30T21:07:40.572Z,81.13
2017-12-30T21:10:08.049Z,81.33
2017-12-30T21:12:35.643Z,81.49
2017-12-30T21:15:03.136Z,81.59
2017-12-30T21:17:30.581Z,81.47
2017-12-30T21:19:58.072Z,81.57
2017-12-30T21:22:25.553Z,81.73
2017-12-30T21:24:53.049Z,81.74
2017-12-30T21:27:20.524Z,81.34
2017-12-30T21:29:47.971Z,81.46
2017-12-30T21:32:15.689Z,81.77
2017-12-30T21:34:43.156Z,81.79
2017-12-30T21:37:10.647Z,81.87
2017-12-30T21:39:38.160Z,81.69
2017-12-30T21:42:05.601Z,81.56
2017-12-30T21:44:33.032Z,81.70
2017-12-30T21:47:00.464Z,81.68
2017-12-30T21:49:27.919Z,81.44
2017-12-30T21:51:55.466Z,80.97
2017-12-30T21:54:23.017Z,80.49
2017-12-30T21:56:50.459Z,80.32
2017-12-30T21:59:17.924Z,80.27
2017-12-30T22:01:45.428Z,79.94
2017-12-30T22:04:12.904Z,79.77
2017-12-30T22:06:40.406Z,79.48
2017-12-30T22:09:07.870Z,78.95
2017-12-30T22:11:35.322Z,78.65
2017-12-30T22:14:02.775Z,78.43
2017-12-30T22:16:30.253Z,78.36
2017-12-30T22:18:57.701Z,78.06
2017-12-30T22:21:25.178Z,77.65
2017-12-30T22:23:52.620Z,77.51
2017-12-30T22:26:20.103Z,76.84
2017-12-30T22:28:47.574Z,76.71
2017-12-30T22:31:15.062Z,76.29
2017-12-30T22:33:42.545Z,75.98
2017-12-30T22:36:10.030Z,75.62
2017-12-30T22:38:37.495Z,75.34
2017-12-30T22:41:04.946Z,75.23
2017-12-30T22:43:32.604Z,75.17
2017-12-30T22:46:00.083Z,75.21
2017-12-30T22:48:27.513Z,74.89
2017-12-30T22:50:54.997Z,74.60
2017-12-30T22:53:22.471Z,74.35
2017-12-30T22:55:49.957Z,74.19
2017-12-30T22:58:17.432Z,74.15
2017-12-30T23:00:50.495Z,74.30
2017-12-30T23:03:17.940Z,74.12
2017-12-30T23:05:45.399Z,74.19
2017-12-30T23:08:12.879Z,74.20
2017-12-30T23:10:40.341Z,74.21
2017-12-30T23:13:07.798Z,74.43
2017-12-30T23:15:35.273Z,74.31
2017-12-30T23:18:02.707Z,74.25
2017-12-30T23:20:30.152Z,74.08
2017-12-30T23:22:57.591Z,73.94
2017-12-30T23:25:25.034Z,73.99
2017-12-30T23:27:53.297Z,73.82
2017-12-30T23:30:20.771Z,73.74
2017-12-30T23:32:48.214Z,73.77
2017-12-30T23:35:15.678Z,73.90
2017-12-30T23:37:43.142Z,73.94
2017-12-30T23:40:11.374Z,73.93
2017-12-30T23:42:38.825Z,74.02
2017-12-30T23:45:06.269Z,73.95
2017-12-30T23:47:33.715Z,73.93
2017-12-30T23:50:01.195Z,73.82
2017-12-30T23:52:28.652Z,73.89
2017-12-30T23:54:56.091Z,73.95
2017-12-30T23:57:23.543Z,73.87
2017-12-30T23:59:51.024Z,73.81
